Time;durP1;ratioP1;P1;durP2;ratioP2;P2;SDS_P1;SDS_P2;PMS_P1;PMS_P2;Temp;Humidity;BMP_temperature;BMP_pressure;BME280_temperature;BME280_humidity;BME280_pressure;Samples;Min_cycle;Max_cycle;Signal;HPM_P1;HPM_P2
2022/06/10 00:00:20;;;;;;;9.90;3.10;;;;;;;11.76;90.98;101949.44;5045606;28;20109;-86
2022/06/10 00:02:45;;;;;;;11.45;3.03;;;;;;;11.69;91.20;101946.91;5045762;28;20034;-87
2022/06/10 00:05:36;;;;;;;10.63;3.40;;;;;;;11.61;91.86;101958.81;5039160;28;20096;-87
2022/06/10 00:08:12;;;;;;;8.98;3.85;;;;;;;11.61;91.77;101956.13;5034121;28;20036;-86
2022/06/10 00:10:38;;;;;;;11.63;3.45;;;;;;;11.57;91.97;101948.81;5033362;28;20029;-86
2022/06/10 00:13:04;;;;;;;9.25;3.70;;;;;;;11.52;92.74;101952.19;5032134;28;20124;-87
2022/06/10 00:15:31;;;;;;;11.53;3.53;;;;;;;11.52;92.63;101949.50;5015750;28;20428;-86
2022/06/10 00:17:57;;;;;;;8.20;3.23;;;;;;;11.48;93.20;101956.41;5033420;28;20347;-87
2022/06/10 00:20:25;;;;;;;10.70;3.70;;;;;;;11.47;93.04;101949.41;5032692;28;20033;-87
2022/06/10 00:22:52;;;;;;;9.63;3.60;;;;;;;11.44;93.35;101953.34;5033237;28;20560;-87
2022/06/10 00:25:21;;;;;;;7.73;3.13;;;;;;;11.41;93.14;101942.28;5033646;28;20276;-88
2022/06/10 00:27:48;;;;;;;10.77;3.08;;;;;;;11.38;93.55;101948.13;5032927;28;20507;-87
2022/06/10 00:30:16;;;;;;;10.90;3.00;;;;;;;11.39;94.32;101945.22;5032705;28;20033;-88
2022/06/10 00:32:41;;;;;;;10.48;3.00;;;;;;;11.39;94.00;101942.53;5033037;28;20032;-88
2022/06/10 00:35:07;;;;;;;16.90;3.60;;;;;;;11.42;93.72;101943.91;5033059;28;20021;-86
2022/06/10 00:37:33;;;;;;;9.60;3.22;;;;;;;11.46;94.36;101942.41;5032888;28;20036;-87
2022/06/10 00:39:58;;;;;;;8.18;2.95;;;;;;;11.53;94.47;101951.13;5033068;28;20026;-87
2022/06/10 00:42:23;;;;;;;11.90;3.47;;;;;;;11.55;94.70;101942.84;5033032;28;20440;-87
2022/06/10 00:44:53;;;;;;;9.63;3.17;;;;;;;11.61;93.96;101945.41;5033133;28;20029;-87
2022/06/10 00:47:35;;;;;;;13.05;3.42;;;;;;;11.61;94.67;101948.09;5032946;28;20026;-88
2022/06/10 00:50:25;;;;;;;16.02;3.35;;;;;;;11.64;94.12;101949.47;5032516;28;20036;-87
2022/06/10 00:52:56;;;;;;;10.93;3.85;;;;;;;11.67;94.81;101938.25;5032751;28;20041;-86
2022/06/10 00:55:28;;;;;;;9.90;3.23;;;;;;;11.74;94.76;101943.50;5032583;28;20036;-86
2022/06/10 00:57:59;;;;;;;6.93;2.67;;;;;;;11.77;93.67;101946.53;5032749;28;20284;-87
2022/06/10 01:00:24;;;;;;;13.35;2.90;;;;;;;11.78;93.89;101931.22;5032035;28;20021;-86
2022/06/10 01:02:51;;;;;;;11.68;3.22;;;;;;;11.82;93.57;101943.13;5032778;28;20088;-86
2022/06/10 01:05:24;;;;;;;13.20;3.28;;;;;;;11.87;93.17;101934.34;5032613;28;20432;-87
2022/06/10 01:08:09;;;;;;;11.07;3.00;;;;;;;11.93;93.99;101939.56;5032564;28;20029;-86
2022/06/10 01:11:27;;;;;;;10.67;3.00;;;;;;;12.00;92.58;101938.66;5031862;28;20109;-87
2022/06/10 01:13:58;;;;;;;6.73;2.73;;;;;;;12.09;92.85;101942.56;4932635;29;20417;-87
2022/06/10 01:16:39;;;;;;;11.55;2.70;;;;;;;12.15;92.91;101948.84;4942076;29;20051;-88
2022/06/10 01:19:49;;;;;;;11.63;2.63;;;;;;;12.23;91.88;101938.53;4935487;29;20487;-87
2022/06/10 01:22:17;;;;;;;10.23;2.85;;;;;;;12.30;92.45;101951.00;4931898;29;20051;-87
2022/06/10 01:24:55;;;;;;;10.70;2.50;;;;;;;12.34;91.88;101941.41;4972972;28;20053;-87
2022/06/10 01:28:19;;;;;;;8.75;2.45;;;;;;;12.39;91.42;101946.88;5011938;28;20091;-86
2022/06/10 01:31:12;;;;;;;9.57;2.58;;;;;;;12.45;91.13;101950.47;4933127;29;20301;-87
2022/06/10 01:34:07;;;;;;;11.85;2.20;;;;;;;12.45;91.10;101937.81;5029250;28;20131;-87
2022/06/10 01:36:54;;;;;;;10.07;2.53;;;;;;;12.54;91.45;101949.81;5031648;28;20497;-87
2022/06/10 01:39:55;;;;;;;9.23;2.40;;;;;;;12.54;90.63;101944.44;5031859;28;20025;-87
2022/06/10 01:42:43;;;;;;;10.03;2.40;;;;;;;12.59;90.22;101953.66;5031558;28;20355;-88
2022/06/10 01:45:56;;;;;;;7.80;2.40;;;;;;;12.58;90.86;101952.84;5032295;28;20442;-88
2022/06/10 01:48:38;;;;;;;10.02;2.10;;;;;;;12.61;90.44;101946.13;5001400;28;20095;-86
2022/06/10 01:51:20;;;;;;;13.75;2.55;;;;;;;12.58;90.91;101944.75;5031115;28;20025;-87
2022/06/10 01:53:56;;;;;;;9.25;2.13;;;;;;;12.61;90.44;101948.81;5031816;28;20431;-87
2022/06/10 01:56:29;;;;;;;13.05;2.50;;;;;;;12.63;90.71;101946.72;5031605;28;20053;-87
2022/06/10 01:59:00;;;;;;;14.32;2.55;;;;;;;12.61;91.25;101948.81;5031363;28;20028;-87
2022/06/10 02:01:32;;;;;;;16.35;2.42;;;;;;;12.66;90.59;101944.38;5031149;28;20113;-87
2022/06/10 02:04:11;;;;;;;11.55;2.15;;;;;;;12.69;90.34;101954.63;5032092;28;20034;-87
2022/06/10 02:06:46;;;;;;;18.17;2.37;;;;;;;12.72;90.90;101946.06;5031670;28;20052;-87
2022/06/10 02:09:19;;;;;;;10.63;2.23;;;;;;;12.75;90.09;101955.53;5031248;28;20777;-88
2022/06/10 02:11:51;;;;;;;9.38;2.03;;;;;;;12.77;89.54;101944.53;5031265;28;20109;-87
2022/06/10 02:14:24;;;;;;;10.52;2.53;;;;;;;12.81;90.17;101943.78;5031801;28;20026;-87
2022/06/10 02:16:50;;;;;;;10.60;2.30;;;;;;;12.85;89.95;101944.94;5031363;28;20468;-87
2022/06/10 02:19:26;;;;;;;8.15;2.22;;;;;;;12.87;90.05;101944.69;5030853;28;20034;-87
2022/06/10 02:22:07;;;;;;;12.60;2.30;;;;;;;12.89;89.83;101942.53;5031276;28;20013;-87
2022/06/10 02:24:57;;;;;;;10.05;2.10;;;;;;;12.87;89.72;101939.31;5031242;28;20029;-87
2022/06/10 02:27:28;;;;;;;11.23;2.28;;;;;;;12.94;89.74;101953.41;5030959;28;20020;-87
2022/06/10 02:30:05;;;;;;;11.10;2.58;;;;;;;12.96;89.11;101945.09;5030670;28;20832;-88
2022/06/10 02:32:31;;;;;;;13.20;2.13;;;;;;;12.96;88.39;101945.09;5030838;28;20033;-88
2022/06/10 02:34:57;;;;;;;11.37;2.43;;;;;;;12.99;88.65;101953.47;5030390;28;20288;-87
2022/06/10 02:37:59;;;;;;;11.80;2.50;;;;;;;13.02;88.54;101954.84;5030853;28;20108;-87
2022/06/10 02:40:30;;;;;;;10.65;2.65;;;;;;;13.01;89.62;101953.22;4955523;29;20058;-87
2022/06/10 02:43:05;;;;;;;11.00;2.47;;;;;;;13.05;89.11;101959.75;5024176;28;20044;-87
2022/06/10 02:45:36;;;;;;;11.65;2.33;;;;;;;13.08;88.55;101959.25;5032137;28;20033;-87
2022/06/10 02:48:15;;;;;;;9.15;2.03;;;;;;;13.10;88.68;101962.53;5030874;28;20036;-87
2022/06/10 02:50:44;;;;;;;8.35;2.03;;;;;;;13.09;88.77;101963.59;5029982;28;20443;-87
2022/06/10 02:53:12;;;;;;;11.68;2.28;;;;;;;13.14;88.21;101960.97;5029976;28;20037;-87
2022/06/10 02:55:38;;;;;;;9.38;2.35;;;;;;;13.16;88.69;101961.50;5029714;28;20017;-87
2022/06/10 03:01:16;;;;;;;13.35;2.25;;;;;;;13.22;87.90;101958.91;5030559;28;20099;-87
2022/06/10 03:04:09;;;;;;;13.32;2.78;;;;;;;13.24;88.47;101962.16;5030759;28;20037;-87
2022/06/10 03:06:46;;;;;;;12.77;2.63;;;;;;;13.25;87.75;101963.78;5030816;28;20404;-87
2022/06/10 03:09:19;;;;;;;11.48;2.13;;;;;;;13.24;88.12;101959.47;5012365;28;20513;-86
2022/06/10 03:11:54;;;;;;;13.27;2.05;;;;;;;13.28;88.12;101974.06;5030279;28;20539;-88
2022/06/10 03:14:40;;;;;;;14.60;2.50;;;;;;;13.28;88.69;101966.00;5030858;28;20025;-87
2022/06/10 03:17:51;;;;;;;15.15;2.40;;;;;;;13.28;88.79;101968.69;5030522;28;20113;-86
2022/06/10 03:20:40;;;;;;;13.57;2.40;;;;;;;13.27;88.28;101972.44;4975800;28;20117;-87
2022/06/10 03:23:39;;;;;;;9.77;2.10;;;;;;;13.33;87.85;101979.50;5030078;28;20029;-87
2022/06/10 03:26:13;;;;;;;13.67;2.27;;;;;;;13.33;87.99;101972.25;5030104;28;20806;-87
2022/06/10 03:29:00;;;;;;;12.70;2.08;;;;;;;13.36;88.05;101975.53;5030591;28;20028;-87
2022/06/10 03:31:36;;;;;;;11.73;2.13;;;;;;;13.34;88.39;101983.81;5029818;28;20026;-87
2022/06/10 03:34:17;;;;;;;12.82;2.70;;;;;;;13.36;88.68;101984.41;5030203;28;20373;-87
2022/06/10 03:36:46;;;;;;;11.85;2.05;;;;;;;13.36;88.14;101987.09;5030381;28;20440;-87
2022/06/10 03:39:12;;;;;;;13.43;2.30;;;;;;;13.39;88.12;101980.41;5012386;28;20030;-88
2022/06/10 03:41:52;;;;;;;20.23;2.90;;;;;;;13.41;88.62;101989.88;5029618;28;20079;-87
2022/06/10 03:44:20;;;;;;;11.43;2.57;;;;;;;13.43;88.61;101984.25;5030284;28;20045;-87
2022/06/10 03:46:49;;;;;;;10.40;2.00;;;;;;;13.41;87.97;101987.19;5031165;28;20109;-87
2022/06/10 03:49:17;;;;;;;14.32;2.78;;;;;;;13.47;88.62;101994.28;5033901;28;20057;-87
2022/06/10 03:51:44;;;;;;;16.27;2.65;;;;;;;13.48;88.73;101995.91;5033332;28;20041;-87
2022/06/10 03:54:13;;;;;;;13.93;2.33;;;;;;;13.50;88.09;101995.66;5033659;28;20036;-87
2022/06/10 03:56:38;;;;;;;15.27;2.72;;;;;;;13.52;88.06;101985.47;5033327;28;20029;-88
2022/06/10 03:59:03;;;;;;;15.03;2.60;;;;;;;13.48;88.84;101987.00;5033747;28;20044;-87
2022/06/10 04:01:34;;;;;;;13.67;2.70;;;;;;;13.50;89.24;101992.16;5033162;28;20021;-86
2022/06/10 04:03:59;;;;;;;11.80;2.50;;;;;;;13.50;88.67;101995.66;5015951;28;20033;-86
2022/06/10 04:06:25;;;;;;;11.57;2.60;;;;;;;13.49;89.21;101991.34;5033881;28;20021;-86
2022/06/10 04:08:51;;;;;;;13.32;2.25;;;;;;;13.50;88.74;101990.28;5035032;28;20029;-86
2022/06/10 04:11:16;;;;;;;15.93;2.77;;;;;;;13.52;88.35;101984.63;5033113;28;20022;-87
2022/06/10 04:13:51;;;;;;;18.17;2.88;;;;;;;13.58;88.56;102003.31;5015837;28;20040;-87
2022/06/10 04:16:17;;;;;;;13.52;2.72;;;;;;;13.57;88.64;101987.41;5015933;28;20017;-86
2022/06/10 04:18:42;;;;;;;11.40;2.03;;;;;;;13.65;89.24;102000.44;5033689;28;20044;-86
2022/06/10 04:21:07;;;;;;;11.40;2.33;;;;;;;13.71;88.71;102007.50;5033225;28;20104;-87
2022/06/10 04:23:33;;;;;;;12.43;2.50;;;;;;;13.77;89.04;102000.31;5033211;28;20065;-85
2022/06/10 04:25:59;;;;;;;8.70;2.00;;;;;;;13.85;89.94;102015.22;5033412;28;20091;-86
2022/06/10 04:28:25;;;;;;;14.13;2.65;;;;;;;13.89;89.82;102016.34;5033257;28;20036;-87
2022/06/10 04:30:53;;;;;;;14.07;2.67;;;;;;;13.95;90.10;102009.94;5032250;28;20029;-87
2022/06/10 04:33:19;;;;;;;9.13;2.30;;;;;;;14.03;89.53;102011.38;5032596;28;20504;-87
2022/06/10 04:35:46;;;;;;;11.90;2.42;;;;;;;13.99;90.62;102011.09;5033300;28;20030;-87
2022/06/10 04:38:15;;;;;;;13.55;2.03;;;;;;;13.98;91.27;102009.44;5032690;28;20501;-87
2022/06/10 04:40:41;;;;;;;11.23;2.10;;;;;;;14.00;91.47;102004.63;5032559;28;20036;-88
2022/06/10 04:43:07;;;;;;;15.50;2.37;;;;;;;14.06;92.28;102008.19;5032727;28;20074;-88
2022/06/10 04:45:37;;;;;;;15.97;2.40;;;;;;;14.11;91.32;102013.66;5033084;28;20755;-87
2022/06/10 04:48:03;;;;;;;12.38;2.22;;;;;;;14.07;91.59;102012.50;5033069;28;20469;-88
2022/06/10 04:50:29;;;;;;;13.52;2.55;;;;;;;14.06;92.18;102006.28;5014864;28;20116;-87
2022/06/10 04:52:55;;;;;;;17.50;2.75;;;;;;;14.16;92.81;102024.47;5032835;28;20405;-88
2022/06/10 04:55:21;;;;;;;15.85;2.55;;;;;;;14.19;93.45;102015.06;5014966;28;20123;-89
2022/06/10 04:57:56;;;;;;;14.40;2.42;;;;;;;14.21;94.15;102016.44;5032226;28;20036;-88
2022/06/10 05:00:33;;;;;;;11.93;2.30;;;;;;;14.29;92.52;102015.16;5032060;28;20029;-87
2022/06/10 05:02:59;;;;;;;17.20;3.10;;;;;;;14.30;92.28;102016.81;5016063;28;20276;-87
2022/06/10 05:05:26;;;;;;;11.30;2.72;;;;;;;14.31;91.73;102013.03;5033002;28;20032;-87
2022/06/10 05:07:51;;;;;;;16.35;2.65;;;;;;;14.29;91.46;102009.78;5033313;28;20029;-87
2022/06/10 05:10:18;;;;;;;11.65;3.00;;;;;;;14.28;91.66;102016.22;5041115;28;20022;-87
2022/06/10 05:12:44;;;;;;;10.90;2.35;;;;;;;14.29;92.23;102019.75;5053747;28;20080;-86
2022/06/10 05:15:11;;;;;;;10.03;2.57;;;;;;;14.31;91.93;102021.13;5050584;28;20026;-88
2022/06/10 05:17:37;;;;;;;13.68;2.85;;;;;;;14.30;90.92;102016.81;5051763;28;20087;-87
2022/06/10 05:20:02;;;;;;;9.07;2.40;;;;;;;14.33;91.15;102015.50;5033162;28;20124;-87
2022/06/10 05:22:28;;;;;;;11.40;2.60;;;;;;;14.33;90.78;102010.09;5033768;28;20343;-87
2022/06/10 05:24:53;;;;;;;15.33;3.27;;;;;;;14.38;90.29;102010.97;5033408;28;20104;-87
2022/06/10 05:27:18;;;;;;;8.45;2.08;;;;;;;14.47;90.15;102022.09;5015561;28;20041;-87
2022/06/10 05:29:44;;;;;;;9.13;2.50;;;;;;;14.50;90.29;102004.59;5032840;28;20018;-86
2022/06/10 05:32:09;;;;;;;10.80;2.13;;;;;;;14.58;89.04;102012.22;5031695;28;20160;-88
2022/06/10 05:34:46;;;;;;;11.30;2.40;;;;;;;14.59;90.32;101994.97;5033176;28;20489;-88
2022/06/10 05:37:19;;;;;;;11.77;2.63;;;;;;;14.63;90.85;102004.16;5017185;28;20021;-87
2022/06/10 05:39:45;;;;;;;9.88;2.50;;;;;;;14.72;91.17;102006.44;5032617;28;20032;-87
2022/06/10 05:42:10;;;;;;;12.30;2.22;;;;;;;14.76;90.05;102010.25;5032196;28;20040;-87
2022/06/10 05:44:42;;;;;;;6.73;2.10;;;;;;;14.87;88.90;102005.75;5032394;28;20026;-87
2022/06/10 05:47:14;;;;;;;10.65;2.00;;;;;;;14.97;88.65;102006.63;5032256;28;20029;-87
2022/06/10 05:49:43;;;;;;;13.77;2.63;;;;;;;15.12;87.41;102005.13;5032196;28;20033;-87
2022/06/10 05:52:10;;;;;;;7.70;1.85;;;;;;;15.23;86.47;102011.41;5031436;28;20440;-87
2022/06/10 05:54:38;;;;;;;11.38;2.20;;;;;;;15.30;86.42;102003.88;5032127;28;20584;-87
2022/06/10 05:57:04;;;;;;;17.02;2.40;;;;;;;15.44;85.66;102012.31;5031843;28;20021;-87
2022/06/10 05:59:29;;;;;;;13.23;2.00;;;;;;;15.45;85.09;101998.56;5031814;28;20029;-88
2022/06/10 06:01:58;;;;;;;10.47;2.20;;;;;;;15.55;85.19;101992.38;5031113;28;20682;-88
2022/06/10 06:04:23;;;;;;;7.78;2.20;;;;;;;15.68;84.68;102001.09;5031290;28;20031;-87
2022/06/10 06:06:48;;;;;;;8.63;1.50;;;;;;;15.83;83.47;101995.75;5031444;28;20029;-87
2022/06/10 06:09:14;;;;;;;9.63;1.60;;;;;;;16.02;83.30;102006.91;5031171;28;20072;-87
2022/06/10 06:11:41;;;;;;;11.35;2.05;;;;;;;16.20;82.91;102013.75;5030920;28;20033;-87
2022/06/10 06:14:06;;;;;;;7.82;1.80;;;;;;;16.37;80.89;102017.28;5031260;28;20036;-87
2022/06/10 06:16:32;;;;;;;8.40;1.67;;;;;;;16.42;81.21;102009.16;5031217;28;20065;-87
2022/06/10 06:19:06;;;;;;;11.95;1.92;;;;;;;16.50;81.07;102014.88;5034225;28;20134;-87
2022/06/10 06:21:34;;;;;;;9.10;1.63;;;;;;;16.47;80.01;102018.09;5050636;28;20115;-87
2022/06/10 06:23:59;;;;;;;8.93;1.40;;;;;;;16.30;81.02;102012.94;5050663;28;20288;-89
2022/06/10 06:26:25;;;;;;;8.05;1.27;;;;;;;16.25;80.93;102014.84;5050807;28;20105;-87
2022/06/10 06:28:50;;;;;;;8.50;1.57;;;;;;;16.26;80.40;102021.84;5050802;28;20137;-87
2022/06/10 06:31:16;;;;;;;9.30;1.50;;;;;;;16.36;80.46;102021.88;5050278;28;20619;-87
2022/06/10 06:33:41;;;;;;;11.20;1.73;;;;;;;16.57;79.72;102024.63;5050221;28;20028;-87
2022/06/10 06:36:14;;;;;;;10.38;1.55;;;;;;;16.83;79.45;102035.44;5042775;28;20100;-87
2022/06/10 06:38:41;;;;;;;7.72;1.33;;;;;;;16.87;77.75;102023.00;5030914;28;20057;-88
2022/06/10 06:41:06;;;;;;;8.13;1.48;;;;;;;17.02;77.82;102028.41;5030493;28;20033;-88
2022/06/10 06:43:32;;;;;;;4.87;1.50;;;;;;;17.14;77.44;102025.44;5030647;28;20029;-88
2022/06/10 06:45:57;;;;;;;6.13;1.20;;;;;;;17.22;76.90;102026.78;5030734;28;20118;-88
2022/06/10 06:48:22;;;;;;;7.87;1.37;;;;;;;17.37;75.99;102032.16;5031010;28;20029;-88
2022/06/10 06:50:49;;;;;;;9.10;1.83;;;;;;;17.46;76.20;102032.41;5030424;28;20171;-88
2022/06/10 06:53:19;;;;;;;9.20;1.60;;;;;;;17.60;75.69;102040.78;5012437;28;20025;-88
2022/06/10 06:55:44;;;;;;;8.73;1.90;;;;;;;17.66;74.98;102055.09;5030615;28;20370;-87
2022/06/10 06:58:15;;;;;;;6.80;1.37;;;;;;;17.66;73.95;102055.94;5030468;28;20025;-88
2022/06/10 07:00:41;;;;;;;6.25;1.40;;;;;;;17.66;74.25;102055.94;5029650;28;20080;-88
2022/06/10 07:03:06;;;;;;;5.90;1.40;;;;;;;17.76;74.17;102054.28;5030616;28;20033;-88
2022/06/10 07:05:32;;;;;;;6.03;1.37;;;;;;;17.79;73.38;102056.44;5031537;28;20538;-88
2022/06/10 07:07:58;;;;;;;10.97;1.63;;;;;;;17.63;74.18;102053.78;5030643;28;20056;-87
2022/06/10 07:10:23;;;;;;;6.57;1.30;;;;;;;17.61;74.07;102055.16;5030110;28;20109;-88
2022/06/10 07:12:52;;;;;;;8.02;1.45;;;;;;;17.67;73.65;102054.84;5030970;28;20168;-88
2022/06/10 07:15:18;;;;;;;7.47;1.50;;;;;;;17.75;73.91;102048.03;5030652;28;20026;-87
2022/06/10 07:17:44;;;;;;;5.10;1.23;;;;;;;17.87;72.92;102050.44;5030646;28;20810;-88
2022/06/10 07:20:18;;;;;;;6.95;1.42;;;;;;;18.05;72.58;102037.38;5030189;28;20033;-88
2022/06/10 07:22:43;;;;;;;9.27;1.10;;;;;;;18.26;71.60;102041.56;5032831;28;20556;-87
2022/06/10 07:25:10;;;;;;;4.53;1.77;;;;;;;18.40;71.04;102035.53;5034545;28;20088;-88
2022/06/10 07:27:36;;;;;;;7.13;1.55;;;;;;;18.54;70.48;102031.09;5034246;28;20104;-88
2022/06/10 07:30:04;;;;;;;10.43;1.55;;;;;;;18.72;69.51;102047.78;5033921;28;20465;-88
2022/06/10 07:32:30;;;;;;;6.18;1.27;;;;;;;18.84;68.88;102050.16;5033701;28;20061;-88
2022/06/10 07:34:55;;;;;;;6.03;1.40;;;;;;;19.04;68.17;102058.16;5034482;28;20049;-88
2022/06/10 07:37:20;;;;;;;7.60;1.30;;;;;;;19.04;67.62;102046.47;5033937;28;20068;-87
2022/06/10 07:39:45;;;;;;;8.33;1.63;;;;;;;19.35;67.68;102054.34;5033902;28;20029;-88
2022/06/10 07:42:11;;;;;;;6.97;1.10;;;;;;;19.65;66.85;102061.31;5034168;28;20025;-88
2022/06/10 07:44:37;;;;;;;7.67;1.43;;;;;;;19.69;66.69;102047.97;5034069;28;20017;-88
2022/06/10 07:47:13;;;;;;;8.20;1.50;;;;;;;19.72;67.14;102055.53;5034284;28;20100;-88
2022/06/10 07:49:39;;;;;;;6.75;1.40;;;;;;;19.76;66.61;102061.22;5033991;28;20087;-86
2022/06/10 07:52:05;;;;;;;5.82;1.30;;;;;;;19.71;66.22;102058.53;5033550;28;20022;-88
2022/06/10 07:54:33;;;;;;;5.53;1.40;;;;;;;19.63;65.91;102055.34;5033733;28;20108;-88
2022/06/10 07:56:59;;;;;;;5.87;1.50;;;;;;;19.67;65.86;102053.69;5015857;28;20367;-88
2022/06/10 07:59:24;;;;;;;5.88;1.27;;;;;;;19.54;66.09;102045.44;5033571;28;20022;-88
2022/06/10 08:01:50;;;;;;;7.87;1.40;;;;;;;19.40;67.46;102045.31;5033586;28;20056;-89
2022/06/10 08:04:15;;;;;;;6.73;1.77;;;;;;;19.22;66.25;102032.16;5033755;28;20063;-89
2022/06/10 08:06:46;;;;;;;6.57;1.50;;;;;;;19.38;66.24;102042.88;5033588;28;20424;-88
2022/06/10 08:09:12;;;;;;;7.37;1.73;;;;;;;19.56;66.80;102045.94;5033760;28;20068;-88
2022/06/10 08:11:38;;;;;;;4.78;1.27;;;;;;;19.86;65.41;102050.19;5032997;28;20095;-88
2022/06/10 08:14:05;;;;;;;5.97;1.50;;;;;;;20.25;65.54;102048.38;5034058;28;20033;-88
2022/06/10 08:16:33;;;;;;;8.95;1.30;;;;;;;20.53;62.86;102052.03;5033762;28;20052;-88
2022/06/10 08:18:58;;;;;;;8.63;1.63;;;;;;;20.26;62.23;102050.78;5033845;28;20473;-88
2022/06/10 08:22:32;;;;;;;5.50;1.20;;;;;;;20.48;62.10;102052.09;5033733;28;20037;-87
2022/06/10 08:24:16;;;;;;;6.47;1.33;;;;;;;20.78;61.42;102057.41;5032824;28;20175;-88
2022/06/10 08:26:41;;;;;;;5.13;1.50;;;;;;;20.94;60.86;102066.09;5033338;28;20057;-88
2022/06/10 08:29:07;;;;;;;5.80;1.50;;;;;;;21.00;58.96;102060.25;5033230;28;20053;-89
2022/06/10 08:31:33;;;;;;;4.67;1.13;;;;;;;21.24;60.04;102062.03;5015067;28;20156;-87
2022/06/10 08:33:58;;;;;;;6.20;1.30;;;;;;;21.44;58.59;102057.31;5031771;28;20822;-87
2022/06/10 08:36:24;;;;;;;8.93;2.00;;;;;;;21.37;57.08;102070.53;5033753;28;20029;-88
2022/06/10 08:38:50;;;;;;;9.13;1.60;;;;;;;21.35;58.20;102070.03;5032769;28;20034;-88
2022/06/10 08:41:21;;;;;;;5.25;1.23;;;;;;;21.53;58.51;102062.88;5032702;28;20017;-88
2022/06/10 08:43:57;;;;;;;12.23;1.77;;;;;;;21.44;58.14;102066.31;5032952;28;20037;-88
2022/06/10 08:46:41;;;;;;;10.73;1.57;;;;;;;21.44;57.53;102063.59;5033173;28;20108;-87
2022/06/10 08:49:10;;;;;;;9.47;1.40;;;;;;;21.28;57.06;102062.22;5032800;28;20276;-88
2022/06/10 08:51:59;;;;;;;8.32;1.45;;;;;;;21.19;57.63;102048.50;5032559;28;20040;-88
2022/06/10 08:54:47;;;;;;;7.15;1.50;;;;;;;21.13;58.59;102041.53;5033466;28;20060;-88
2022/06/10 08:57:39;;;;;;;9.48;1.75;;;;;;;21.79;58.32;102046.81;5032712;28;20029;-88
2022/06/10 09:00:26;;;;;;;7.60;2.00;;;;;;;21.97;56.54;102038.81;5032370;28;20037;-86
2022/06/10 09:02:58;;;;;;;12.50;1.85;;;;;;;22.34;56.39;102048.63;5032732;28;20033;-87
2022/06/10 09:05:30;;;;;;;11.65;2.08;;;;;;;22.49;55.63;102036.56;5032772;28;20033;-86
2022/06/10 09:07:59;;;;;;;8.93;2.05;;;;;;;22.50;55.62;102038.16;5032675;28;20076;-87
2022/06/10 09:10:35;;;;;;;7.72;1.70;;;;;;;22.38;56.18;102035.16;5032226;28;20033;-87
2022/06/10 09:13:14;;;;;;;10.23;2.10;;;;;;;22.18;55.07;102042.72;5032975;28;20035;-86
2022/06/10 09:15:53;;;;;;;8.07;2.20;;;;;;;22.35;56.56;102052.16;5033201;28;20320;-87
2022/06/10 09:18:32;;;;;;;11.43;2.20;;;;;;;22.65;55.23;102041.63;5032493;28;20032;-87
2022/06/10 09:21:05;;;;;;;11.00;2.53;;;;;;;22.90;55.83;102047.59;5015198;28;20477;-87
2022/06/10 09:23:41;;;;;;;10.73;2.53;;;;;;;22.99;54.52;102048.47;5032214;28;20120;-88
2022/06/10 09:26:19;;;;;;;7.40;2.20;;;;;;;23.10;55.35;102043.50;5033029;28;20136;-88
2022/06/10 09:28:44;;;;;;;8.45;1.90;;;;;;;22.57;54.84;102050.59;5034220;28;20033;-88
2022/06/10 09:31:48;;;;;;;8.70;2.17;;;;;;;22.74;56.58;102039.78;5033198;28;20075;-88
2022/06/10 09:34:32;;;;;;;10.57;1.95;;;;;;;23.32;55.43;102047.31;5023080;28;20037;-88
2022/06/10 09:37:16;;;;;;;11.82;2.08;;;;;;;23.65;54.71;102046.94;5033012;28;20025;-88
2022/06/10 09:43:13;;;;;;;7.15;2.00;;;;;;;24.73;53.30;102051.06;5032342;28;20095;-87
2022/06/10 09:46:10;;;;;;;9.73;2.00;;;;;;;25.05;50.97;102041.50;5031686;28;20025;-88
2022/06/10 09:49:26;;;;;;;6.77;1.90;;;;;;;25.89;50.46;102053.03;5014134;28;20036;-88
2022/06/10 09:52:03;;;;;;;9.40;2.30;;;;;;;25.96;46.51;102061.53;4950815;29;20374;-88
2022/06/10 09:54:53;;;;;;;7.07;1.90;;;;;;;26.09;46.27;102054.97;4951543;29;20023;-88
2022/06/10 09:57:59;;;;;;;11.88;2.35;;;;;;;25.87;48.24;102055.31;5007768;28;20041;-88
2022/06/10 10:00:33;;;;;;;9.07;2.10;;;;;;;25.43;47.44;102050.88;5031220;28;20033;-88
2022/06/10 10:03:28;;;;;;;13.20;2.30;;;;;;;25.50;48.26;102062.13;5031481;28;20029;-88
2022/06/10 10:06:15;;;;;;;9.82;2.22;;;;;;;25.74;47.71;102055.22;5031415;28;20049;-88
2022/06/10 10:09:11;;;;;;;8.65;2.40;;;;;;;25.98;48.96;102062.81;5031466;28;20025;-88
2022/06/10 10:12:10;;;;;;;6.30;2.30;;;;;;;26.07;49.62;102057.25;4997403;28;20488;-87
2022/06/10 10:15:08;;;;;;;7.65;2.58;;;;;;;26.48;47.86;102062.28;5031693;28;20389;-89
2022/06/10 10:17:47;;;;;;;5.10;2.10;;;;;;;26.57;47.51;102068.50;5032046;28;20036;-87
2022/06/10 10:20:15;;;;;;;7.17;2.47;;;;;;;25.72;47.58;102053.94;5030783;28;20656;-87
2022/06/10 10:23:08;;;;;;;8.07;2.25;;;;;;;25.75;49.49;102062.31;5031251;28;20131;-88
2022/06/10 10:25:34;;;;;;;11.45;2.30;;;;;;;25.87;47.35;102047.06;5031507;28;20072;-88
2022/06/10 10:28:01;;;;;;;8.63;2.57;;;;;;;25.66;47.49;102047.84;5031550;28;20021;-88
2022/06/10 10:30:36;;;;;;;8.07;2.13;;;;;;;25.46;49.22;102058.44;5031387;28;20280;-88
2022/06/10 10:33:05;;;;;;;9.70;2.50;;;;;;;25.18;49.51;102045.16;5030705;28;20499;-88
2022/06/10 10:35:39;;;;;;;15.60;2.70;;;;;;;25.35;49.15;102046.22;5031757;28;20021;-88
2022/06/10 10:38:10;;;;;;;11.50;2.67;;;;;;;25.69;48.40;102052.66;5031035;28;20029;-88
2022/06/10 10:40:42;;;;;;;11.02;2.85;;;;;;;25.79;48.59;102044.03;5030633;28;20520;-88
2022/06/10 10:43:16;;;;;;;8.98;2.17;;;;;;;26.12;48.20;102048.03;5031176;28;20051;-87
2022/06/10 10:45:59;;;;;;;10.23;2.80;;;;;;;26.33;48.21;102038.97;5030770;28;20507;-88
2022/06/10 10:48:32;;;;;;;10.48;2.72;;;;;;;26.69;46.64;102038.28;5032156;28;20428;-88
2022/06/10 10:51:09;;;;;;;10.15;3.00;;;;;;;26.73;47.07;102033.72;5030578;28;20025;-87
2022/06/10 10:53:55;;;;;;;12.27;2.80;;;;;;;26.44;47.07;102043.72;5032086;28;20037;-89
2022/06/10 10:56:31;;;;;;;6.57;2.80;;;;;;;26.56;47.69;102042.16;5030372;28;20764;-88
2022/06/10 10:58:57;;;;;;;7.75;2.63;;;;;;;26.61;46.03;102036.44;5030874;28;20027;-88
2022/06/10 11:01:43;;;;;;;8.57;2.90;;;;;;;26.55;46.46;102027.63;5031063;28;20056;-89
2022/06/10 11:04:11;;;;;;;10.52;2.80;;;;;;;26.78;46.07;102034.66;5031958;28;20051;-86
2022/06/10 11:06:38;;;;;;;8.60;2.80;;;;;;;26.70;47.08;102039.91;5031689;28;20421;-89
2022/06/10 11:09:21;;;;;;;9.35;2.60;;;;;;;26.50;47.71;102036.06;5030615;28;20026;-88
2022/06/10 11:11:49;;;;;;;10.88;3.05;;;;;;;25.94;47.44;102036.34;5030115;28;20029;-88
2022/06/10 11:14:23;;;;;;;9.50;2.70;;;;;;;25.72;47.32;102038.28;5030693;28;20028;-88
2022/06/10 11:17:11;;;;;;;10.77;3.00;;;;;;;25.46;49.14;102036.50;5030414;28;20411;-87
2022/06/10 11:19:36;;;;;;;10.27;2.63;;;;;;;25.83;48.04;102038.72;5030682;28;20037;-88
2022/06/10 11:22:02;;;;;;;9.50;2.87;;;;;;;26.17;47.56;102042.34;5030244;28;20288;-87
2022/06/10 11:24:37;;;;;;;9.20;2.83;;;;;;;26.24;47.38;102039.06;5030484;28;20030;-88
2022/06/10 11:27:20;;;;;;;9.35;2.67;;;;;;;26.42;48.44;102036.94;5030405;28;20080;-88
2022/06/10 11:29:57;;;;;;;11.43;3.17;;;;;;;26.40;47.95;102037.28;5030404;28;20061;-89
2022/06/10 11:32:26;;;;;;;12.20;2.63;;;;;;;25.93;48.29;102029.28;5030067;28;20303;-87
2022/06/10 11:34:58;;;;;;;8.68;2.42;;;;;;;25.93;48.61;102030.06;5030509;28;20029;-88
2022/06/10 11:37:36;;;;;;;8.02;2.90;;;;;;;26.51;48.14;102034.09;5030548;28;20105;-87
2022/06/10 11:40:14;;;;;;;14.15;3.28;;;;;;;27.00;48.06;102036.19;5030157;28;20029;-88
2022/06/10 11:42:50;;;;;;;11.70;2.88;;;;;;;27.02;46.10;102031.97;5030386;28;20112;-88
2022/06/10 11:45:24;;;;;;;8.73;2.53;;;;;;;27.14;45.83;102013.88;5030483;28;20067;-88
2022/06/10 11:48:11;;;;;;;11.43;3.08;;;;;;;27.56;46.28;102018.34;5012371;28;20163;-87
2022/06/10 11:50:54;;;;;;;8.13;2.78;;;;;;;27.48;44.67;102014.56;5029856;28;20026;-88
2022/06/10 11:53:32;;;;;;;9.07;2.60;;;;;;;27.35;46.22;102017.31;5030669;28;20380;-87
2022/06/10 12:01:36;;;;;;;7.65;2.20;;;;;;;26.87;44.24;102005.94;5029958;28;20087;-87